sensor_id;sensor_type;location;lat;lon;timestamp;temperature;humidity
16066;DHT22;8137;48.952;8.970;2023-02-15T00:00:16;-0.30;99.90
16066;DHT22;8137;48.952;8.970;2023-02-15T00:02:42;-0.30;99.90
16066;DHT22;8137;48.952;8.970;2023-02-15T00:05:08;-0.30;99.90
16066;DHT22;8137;48.952;8.970;2023-02-15T00:07:34;-0.40;99.90
16066;DHT22;8137;48.952;8.970;2023-02-15T00:10:00;-0.30;99.90
16066;DHT22;8137;48.952;8.970;2023-02-15T00:12:25;-0.30;99.90
16066;DHT22;8137;48.952;8.970;2023-02-15T00:14:51;-0.30;99.90
16066;DHT22;8137;48.952;8.970;2023-02-15T00:17:16;-0.30;99.90
16066;DHT22;8137;48.952;8.970;2023-02-15T00:19:42;-0.30;99.90
16066;DHT22;8137;48.952;8.970;2023-02-15T00:22:08;-0.20;99.90
16066;DHT22;8137;48.952;8.970;2023-02-15T00:24:34;-0.20;99.90
16066;DHT22;8137;48.952;8.970;2023-02-15T00:26:59;-0.10;99.90
16066;DHT22;8137;48.952;8.970;2023-02-15T00:29:25;-0.10;99.90
16066;DHT22;8137;48.952;8.970;2023-02-15T00:31:51;-0.10;99.90
16066;DHT22;8137;48.952;8.970;2023-02-15T00:34:18;0.00;99.90
16066;DHT22;8137;48.952;8.970;2023-02-15T00:36:44;0.00;99.90
16066;DHT22;8137;48.952;8.970;2023-02-15T00:39:10;0.00;99.90
16066;DHT22;8137;48.952;8.970;2023-02-15T00:41:36;0.10;99.90
16066;DHT22;8137;48.952;8.970;2023-02-15T00:44:02;0.00;99.90
16066;DHT22;8137;48.952;8.970;2023-02-15T00:46:28;0.00;99.90
16066;DHT22;8137;48.952;8.970;2023-02-15T00:48:53;0.00;99.90
16066;DHT22;8137;48.952;8.970;2023-02-15T00:51:19;0.00;99.90
16066;DHT22;8137;48.952;8.970;2023-02-15T00:53:46;0.00;99.90
16066;DHT22;8137;48.952;8.970;2023-02-15T00:56:12;0.00;99.90
16066;DHT22;8137;48.952;8.970;2023-02-15T00:58:37;0.00;99.90
16066;DHT22;8137;48.952;8.970;2023-02-15T01:01:06;0.00;99.90
16066;DHT22;8137;48.952;8.970;2023-02-15T01:03:32;0.10;99.90
16066;DHT22;8137;48.952;8.970;2023-02-15T01:05:58;0.10;99.90
16066;DHT22;8137;48.952;8.970;2023-02-15T01:08:23;0.10;99.90
16066;DHT22;8137;48.952;8.970;2023-02-15T01:10:49;0.10;99.90
16066;DHT22;8137;48.952;8.970;2023-02-15T01:13:15;0.20;99.90
16066;DHT22;8137;48.952;8.970;2023-02-15T01:15:41;0.20;99.90
16066;DHT22;8137;48.952;8.970;2023-02-15T01:18:07;0.20;99.90
16066;DHT22;8137;48.952;8.970;2023-02-15T01:20:35;0.20;99.90
16066;DHT22;8137;48.952;8.970;2023-02-15T01:23:05;0.20;99.90
16066;DHT22;8137;48.952;8.970;2023-02-15T01:25:30;0.20;99.90
16066;DHT22;8137;48.952;8.970;2023-02-15T01:27:57;0.20;99.90
16066;DHT22;8137;48.952;8.970;2023-02-15T01:30:23;0.20;99.90
16066;DHT22;8137;48.952;8.970;2023-02-15T01:32:48;0.20;99.90
16066;DHT22;8137;48.952;8.970;2023-02-15T01:35:14;0.20;99.90
16066;DHT22;8137;48.952;8.970;2023-02-15T01:37:39;0.20;99.90
16066;DHT22;8137;48.952;8.970;2023-02-15T01:40:08;0.20;99.90
16066;DHT22;8137;48.952;8.970;2023-02-15T01:42:34;0.20;99.90
16066;DHT22;8137;48.952;8.970;2023-02-15T01:45:03;0.20;99.90
16066;DHT22;8137;48.952;8.970;2023-02-15T01:47:39;0.20;99.90
16066;DHT22;8137;48.952;8.970;2023-02-15T01:50:28;0.20;99.90
16066;DHT22;8137;48.952;8.970;2023-02-15T01:55:36;0.30;99.90
16066;DHT22;8137;48.952;8.970;2023-02-15T01:58:03;0.30;99.90
16066;DHT22;8137;48.952;8.970;2023-02-15T02:00:29;0.30;99.90
16066;DHT22;8137;48.952;8.970;2023-02-15T02:02:55;0.40;99.90
16066;DHT22;8137;48.952;8.970;2023-02-15T02:05:22;0.40;99.90
16066;DHT22;8137;48.952;8.970;2023-02-15T02:07:49;0.40;99.90
16066;DHT22;8137;48.952;8.970;2023-02-15T02:10:18;0.40;99.90
16066;DHT22;8137;48.952;8.970;2023-02-15T02:12:45;0.40;99.90
16066;DHT22;8137;48.952;8.970;2023-02-15T02:15:12;0.40;99.90
16066;DHT22;8137;48.952;8.970;2023-02-15T02:18:03;0.40;99.90
16066;DHT22;8137;48.952;8.970;2023-02-15T02:23:51;0.40;99.90
16066;DHT22;8137;48.952;8.970;2023-02-15T02:29:33;0.40;99.90
16066;DHT22;8137;48.952;8.970;2023-02-15T02:38:08;0.40;99.90
16066;DHT22;8137;48.952;8.970;2023-02-15T02:40:43;0.40;99.90
16066;DHT22;8137;48.952;8.970;2023-02-15T02:45:53;0.40;99.90
16066;DHT22;8137;48.952;8.970;2023-02-15T02:48:27;0.40;99.90
16066;DHT22;8137;48.952;8.970;2023-02-15T02:50:55;0.50;99.90
16066;DHT22;8137;48.952;8.970;2023-02-15T02:53:21;0.40;99.90
16066;DHT22;8137;48.952;8.970;2023-02-15T02:56:15;0.40;99.90
16066;DHT22;8137;48.952;8.970;2023-02-15T02:58:48;0.50;99.90
16066;DHT22;8137;48.952;8.970;2023-02-15T03:01:34;0.40;99.90
16066;DHT22;8137;48.952;8.970;2023-02-15T03:04:06;0.40;99.90
16066;DHT22;8137;48.952;8.970;2023-02-15T03:09:12;0.20;99.90
16066;DHT22;8137;48.952;8.970;2023-02-15T03:11:41;0.10;99.90
16066;DHT22;8137;48.952;8.970;2023-02-15T03:14:07;0.10;99.90
16066;DHT22;8137;48.952;8.970;2023-02-15T03:16:33;0.10;99.90
16066;DHT22;8137;48.952;8.970;2023-02-15T03:19:02;0.00;99.90
16066;DHT22;8137;48.952;8.970;2023-02-15T03:21:42;0.00;99.90
16066;DHT22;8137;48.952;8.970;2023-02-15T03:24:18;0.00;99.90
16066;DHT22;8137;48.952;8.970;2023-02-15T03:26:48;0.00;99.90
16066;DHT22;8137;48.952;8.970;2023-02-15T03:29:15;0.00;99.90
16066;DHT22;8137;48.952;8.970;2023-02-15T03:31:44;0.00;99.90
16066;DHT22;8137;48.952;8.970;2023-02-15T03:34:13;-0.10;99.90
16066;DHT22;8137;48.952;8.970;2023-02-15T03:36:42;-0.10;99.90
16066;DHT22;8137;48.952;8.970;2023-02-15T03:39:22;-0.20;99.90
16066;DHT22;8137;48.952;8.970;2023-02-15T03:42:17;-0.20;99.90
16066;DHT22;8137;48.952;8.970;2023-02-15T03:47:32;-0.20;99.90
16066;DHT22;8137;48.952;8.970;2023-02-15T03:50:13;-0.20;99.90
16066;DHT22;8137;48.952;8.970;2023-02-15T03:53:00;-0.20;99.90
16066;DHT22;8137;48.952;8.970;2023-02-15T03:55:27;-0.20;99.90
16066;DHT22;8137;48.952;8.970;2023-02-15T03:57:53;-0.10;99.90
16066;DHT22;8137;48.952;8.970;2023-02-15T04:00:40;0.00;99.90
16066;DHT22;8137;48.952;8.970;2023-02-15T04:03:39;0.00;99.90
16066;DHT22;8137;48.952;8.970;2023-02-15T04:06:05;0.10;99.90
16066;DHT22;8137;48.952;8.970;2023-02-15T04:08:31;0.00;99.90
16066;DHT22;8137;48.952;8.970;2023-02-15T04:11:15;0.00;99.90
16066;DHT22;8137;48.952;8.970;2023-02-15T04:13:41;0.00;99.90
16066;DHT22;8137;48.952;8.970;2023-02-15T04:16:07;0.00;99.90
16066;DHT22;8137;48.952;8.970;2023-02-15T04:18:42;0.10;99.90
16066;DHT22;8137;48.952;8.970;2023-02-15T04:21:28;0.00;99.90
16066;DHT22;8137;48.952;8.970;2023-02-15T04:24:13;0.00;99.90
16066;DHT22;8137;48.952;8.970;2023-02-15T04:26:58;0.00;99.90
16066;DHT22;8137;48.952;8.970;2023-02-15T04:29:25;-0.10;99.90
16066;DHT22;8137;48.952;8.970;2023-02-15T04:31:52;-0.10;99.90
16066;DHT22;8137;48.952;8.970;2023-02-15T04:34:17;-0.10;99.90
16066;DHT22;8137;48.952;8.970;2023-02-15T04:36:43;-0.10;99.90
16066;DHT22;8137;48.952;8.970;2023-02-15T04:39:11;0.00;99.90
16066;DHT22;8137;48.952;8.970;2023-02-15T04:41:37;-0.10;99.90
16066;DHT22;8137;48.952;8.970;2023-02-15T04:44:03;0.00;99.90
16066;DHT22;8137;48.952;8.970;2023-02-15T04:46:28;-0.10;99.90
16066;DHT22;8137;48.952;8.970;2023-02-15T04:48:54;0.00;99.90
16066;DHT22;8137;48.952;8.970;2023-02-15T04:51:20;-0.10;99.90
16066;DHT22;8137;48.952;8.970;2023-02-15T04:53:45;-0.10;99.90
16066;DHT22;8137;48.952;8.970;2023-02-15T04:56:11;-0.10;99.90
16066;DHT22;8137;48.952;8.970;2023-02-15T04:58:37;-0.10;99.90
16066;DHT22;8137;48.952;8.970;2023-02-15T05:01:07;-0.20;99.90
16066;DHT22;8137;48.952;8.970;2023-02-15T05:03:32;-0.20;99.90
16066;DHT22;8137;48.952;8.970;2023-02-15T05:05:58;-0.10;99.90
16066;DHT22;8137;48.952;8.970;2023-02-15T05:08:23;-0.20;99.90
16066;DHT22;8137;48.952;8.970;2023-02-15T05:10:49;-0.20;99.90
16066;DHT22;8137;48.952;8.970;2023-02-15T05:13:15;-0.20;99.90
16066;DHT22;8137;48.952;8.970;2023-02-15T05:15:40;-0.20;99.90
16066;DHT22;8137;48.952;8.970;2023-02-15T05:18:06;-0.10;99.90
16066;DHT22;8137;48.952;8.970;2023-02-15T05:20:33;-0.10;99.90
16066;DHT22;8137;48.952;8.970;2023-02-15T05:22:58;0.00;99.90
16066;DHT22;8137;48.952;8.970;2023-02-15T05:25:24;0.00;99.90
16066;DHT22;8137;48.952;8.970;2023-02-15T05:28:10;0.10;99.90
16066;DHT22;8137;48.952;8.970;2023-02-15T05:30:45;0.10;99.90
16066;DHT22;8137;48.952;8.970;2023-02-15T05:33:10;0.10;99.90
16066;DHT22;8137;48.952;8.970;2023-02-15T05:35:36;0.10;99.90
16066;DHT22;8137;48.952;8.970;2023-02-15T05:38:02;0.10;99.90
16066;DHT22;8137;48.952;8.970;2023-02-15T05:40:27;0.10;99.90
16066;DHT22;8137;48.952;8.970;2023-02-15T05:42:53;0.10;99.90
16066;DHT22;8137;48.952;8.970;2023-02-15T05:45:18;0.20;99.90
16066;DHT22;8137;48.952;8.970;2023-02-15T05:47:44;0.20;99.90
16066;DHT22;8137;48.952;8.970;2023-02-15T05:50:10;0.10;99.90
16066;DHT22;8137;48.952;8.970;2023-02-15T05:52:36;0.10;99.90
16066;DHT22;8137;48.952;8.970;2023-02-15T05:55:03;0.10;99.90
16066;DHT22;8137;48.952;8.970;2023-02-15T05:57:29;0.10;99.90
16066;DHT22;8137;48.952;8.970;2023-02-15T05:59:55;0.10;99.90
16066;DHT22;8137;48.952;8.970;2023-02-15T06:02:21;0.10;99.90
16066;DHT22;8137;48.952;8.970;2023-02-15T06:04:46;0.10;99.90
16066;DHT22;8137;48.952;8.970;2023-02-15T06:07:12;0.20;99.90
16066;DHT22;8137;48.952;8.970;2023-02-15T06:09:37;0.20;99.90
16066;DHT22;8137;48.952;8.970;2023-02-15T06:12:03;0.20;99.90
16066;DHT22;8137;48.952;8.970;2023-02-15T06:14:28;0.10;99.90
16066;DHT22;8137;48.952;8.970;2023-02-15T06:16:54;0.00;99.90
16066;DHT22;8137;48.952;8.970;2023-02-15T06:19:19;0.10;99.90
16066;DHT22;8137;48.952;8.970;2023-02-15T06:21:46;0.00;99.90
16066;DHT22;8137;48.952;8.970;2023-02-15T06:24:12;0.00;99.90
16066;DHT22;8137;48.952;8.970;2023-02-15T06:26:38;0.10;99.90
16066;DHT22;8137;48.952;8.970;2023-02-15T06:29:03;0.10;99.90
16066;DHT22;8137;48.952;8.970;2023-02-15T06:31:29;0.10;99.90
16066;DHT22;8137;48.952;8.970;2023-02-15T06:33:55;0.10;99.90
16066;DHT22;8137;48.952;8.970;2023-02-15T06:36:27;0.10;99.90
16066;DHT22;8137;48.952;8.970;2023-02-15T06:38:54;0.10;99.90
16066;DHT22;8137;48.952;8.970;2023-02-15T06:41:19;0.10;99.90
16066;DHT22;8137;48.952;8.970;2023-02-15T06:43:45;0.20;99.90
16066;DHT22;8137;48.952;8.970;2023-02-15T06:46:10;0.10;99.90
16066;DHT22;8137;48.952;8.970;2023-02-15T06:48:36;0.10;99.90
16066;DHT22;8137;48.952;8.970;2023-02-15T06:51:01;0.10;99.90
16066;DHT22;8137;48.952;8.970;2023-02-15T06:53:27;0.10;99.90
16066;DHT22;8137;48.952;8.970;2023-02-15T06:55:53;0.10;99.90
16066;DHT22;8137;48.952;8.970;2023-02-15T06:58:24;0.20;99.90
16066;DHT22;8137;48.952;8.970;2023-02-15T07:00:51;0.20;99.90
16066;DHT22;8137;48.952;8.970;2023-02-15T07:03:16;0.20;99.90
16066;DHT22;8137;48.952;8.970;2023-02-15T07:05:42;0.20;99.90
16066;DHT22;8137;48.952;8.970;2023-02-15T07:08:08;0.20;99.90
16066;DHT22;8137;48.952;8.970;2023-02-15T07:10:34;0.30;99.90
16066;DHT22;8137;48.952;8.970;2023-02-15T07:13:00;0.30;99.90
16066;DHT22;8137;48.952;8.970;2023-02-15T07:15:25;0.30;99.90
16066;DHT22;8137;48.952;8.970;2023-02-15T07:17:51;0.20;99.90
16066;DHT22;8137;48.952;8.970;2023-02-15T07:20:22;0.20;99.90
16066;DHT22;8137;48.952;8.970;2023-02-15T07:22:49;0.30;99.90
16066;DHT22;8137;48.952;8.970;2023-02-15T07:25:15;0.30;99.90
16066;DHT22;8137;48.952;8.970;2023-02-15T07:27:41;0.40;99.90
16066;DHT22;8137;48.952;8.970;2023-02-15T07:30:09;0.40;99.90
16066;DHT22;8137;48.952;8.970;2023-02-15T07:32:37;0.50;99.90
16066;DHT22;8137;48.952;8.970;2023-02-15T07:35:22;0.50;99.90
16066;DHT22;8137;48.952;8.970;2023-02-15T07:37:48;0.50;99.90
16066;DHT22;8137;48.952;8.970;2023-02-15T07:40:13;0.70;99.90
16066;DHT22;8137;48.952;8.970;2023-02-15T07:42:39;0.90;99.90
16066;DHT22;8137;48.952;8.970;2023-02-15T07:45:05;1.10;99.90
16066;DHT22;8137;48.952;8.970;2023-02-15T07:47:30;1.00;99.90
16066;DHT22;8137;48.952;8.970;2023-02-15T07:49:56;1.00;99.90
16066;DHT22;8137;48.952;8.970;2023-02-15T07:52:21;0.90;99.90
16066;DHT22;8137;48.952;8.970;2023-02-15T07:54:47;0.90;99.90
16066;DHT22;8137;48.952;8.970;2023-02-15T07:57:13;0.80;99.90
16066;DHT22;8137;48.952;8.970;2023-02-15T07:59:38;0.80;99.90
16066;DHT22;8137;48.952;8.970;2023-02-15T08:02:14;0.80;99.90
16066;DHT22;8137;48.952;8.970;2023-02-15T08:04:40;0.80;99.90
16066;DHT22;8137;48.952;8.970;2023-02-15T08:07:05;0.80;99.90
16066;DHT22;8137;48.952;8.970;2023-02-15T08:09:32;0.70;99.90
16066;DHT22;8137;48.952;8.970;2023-02-15T08:11:57;0.70;99.90
16066;DHT22;8137;48.952;8.970;2023-02-15T08:14:23;0.70;99.90
16066;DHT22;8137;48.952;8.970;2023-02-15T08:16:53;0.80;99.90
16066;DHT22;8137;48.952;8.970;2023-02-15T08:19:25;0.70;99.90
16066;DHT22;8137;48.952;8.970;2023-02-15T08:24:26;0.70;99.90
16066;DHT22;8137;48.952;8.970;2023-02-15T08:26:52;0.70;99.90
16066;DHT22;8137;48.952;8.970;2023-02-15T08:29:20;0.80;99.90
16066;DHT22;8137;48.952;8.970;2023-02-15T08:31:47;0.90;99.90
16066;DHT22;8137;48.952;8.970;2023-02-15T08:34:16;1.00;99.90
16066;DHT22;8137;48.952;8.970;2023-02-15T08:36:44;1.00;99.90
16066;DHT22;8137;48.952;8.970;2023-02-15T08:39:11;1.00;99.90
16066;DHT22;8137;48.952;8.970;2023-02-15T08:41:38;1.10;99.90
16066;DHT22;8137;48.952;8.970;2023-02-15T08:44:06;1.10;99.90
16066;DHT22;8137;48.952;8.970;2023-02-15T08:46:35;1.10;99.90
16066;DHT22;8137;48.952;8.970;2023-02-15T08:49:01;1.20;99.90
16066;DHT22;8137;48.952;8.970;2023-02-15T08:51:32;1.20;99.90
16066;DHT22;8137;48.952;8.970;2023-02-15T08:54:00;1.30;99.90
16066;DHT22;8137;48.952;8.970;2023-02-15T08:56:28;1.40;99.90
16066;DHT22;8137;48.952;8.970;2023-02-15T08:58:55;1.30;99.90
16066;DHT22;8137;48.952;8.970;2023-02-15T09:01:26;1.30;99.90
16066;DHT22;8137;48.952;8.970;2023-02-15T09:03:56;1.40;99.90
16066;DHT22;8137;48.952;8.970;2023-02-15T09:06:22;1.40;99.90
16066;DHT22;8137;48.952;8.970;2023-02-15T09:08:49;1.40;99.90
16066;DHT22;8137;48.952;8.970;2023-02-15T09:11:23;1.50;99.90
16066;DHT22;8137;48.952;8.970;2023-02-15T09:14:07;1.60;99.90
16066;DHT22;8137;48.952;8.970;2023-02-15T09:16:36;1.80;99.90
16066;DHT22;8137;48.952;8.970;2023-02-15T09:19:03;1.70;99.90
16066;DHT22;8137;48.952;8.970;2023-02-15T09:21:33;1.70;99.90
16066;DHT22;8137;48.952;8.970;2023-02-15T09:24:03;1.80;99.90
16066;DHT22;8137;48.952;8.970;2023-02-15T09:26:31;2.00;99.90
16066;DHT22;8137;48.952;8.970;2023-02-15T09:28:58;2.10;99.90
16066;DHT22;8137;48.952;8.970;2023-02-15T09:31:28;2.20;99.90
16066;DHT22;8137;48.952;8.970;2023-02-15T09:33:54;2.30;99.90
16066;DHT22;8137;48.952;8.970;2023-02-15T09:36:25;2.40;99.90
16066;DHT22;8137;48.952;8.970;2023-02-15T09:39:08;2.50;99.90
16066;DHT22;8137;48.952;8.970;2023-02-15T09:53:39;2.80;99.90
16066;DHT22;8137;48.952;8.970;2023-02-15T10:01:58;2.90;99.90
16066;DHT22;8137;48.952;8.970;2023-02-15T10:07:42;2.90;99.90
16066;DHT22;8137;48.952;8.970;2023-02-15T10:15:39;3.00;99.90
16066;DHT22;8137;48.952;8.970;2023-02-15T10:18:56;3.00;99.90
16066;DHT22;8137;48.952;8.970;2023-02-15T10:26:51;3.20;99.90
16066;DHT22;8137;48.952;8.970;2023-02-15T10:29:36;3.20;99.90
16066;DHT22;8137;48.952;8.970;2023-02-15T10:32:24;3.30;99.90
16066;DHT22;8137;48.952;8.970;2023-02-15T10:35:23;3.50;99.90
16066;DHT22;8137;48.952;8.970;2023-02-15T10:40:56;3.40;99.90
16066;DHT22;8137;48.952;8.970;2023-02-15T10:57:32;3.70;99.90
16066;DHT22;8137;48.952;8.970;2023-02-15T11:08:03;4.10;99.90
16066;DHT22;8137;48.952;8.970;2023-02-15T11:10:51;4.20;99.90
16066;DHT22;8137;48.952;8.970;2023-02-15T11:13:21;4.30;99.90
16066;DHT22;8137;48.952;8.970;2023-02-15T11:16:13;4.30;99.90
16066;DHT22;8137;48.952;8.970;2023-02-15T11:18:45;4.30;99.90
16066;DHT22;8137;48.952;8.970;2023-02-15T11:23:46;3.60;99.90
16066;DHT22;8137;48.952;8.970;2023-02-15T11:31:47;3.40;99.90
16066;DHT22;8137;48.952;8.970;2023-02-15T11:36:54;3.50;99.90
16066;DHT22;8137;48.952;8.970;2023-02-15T11:39:21;3.60;99.90
16066;DHT22;8137;48.952;8.970;2023-02-15T11:41:52;3.80;99.90
16066;DHT22;8137;48.952;8.970;2023-02-15T11:44:23;3.80;99.90
16066;DHT22;8137;48.952;8.970;2023-02-15T11:46:51;4.00;99.90
16066;DHT22;8137;48.952;8.970;2023-02-15T11:49:30;3.90;99.90
16066;DHT22;8137;48.952;8.970;2023-02-15T11:51:57;3.90;99.90
16066;DHT22;8137;48.952;8.970;2023-02-15T11:54:29;4.00;99.90
16066;DHT22;8137;48.952;8.970;2023-02-15T11:59:47;4.10;99.90
16066;DHT22;8137;48.952;8.970;2023-02-15T12:02:20;4.20;99.90
16066;DHT22;8137;48.952;8.970;2023-02-15T12:04:56;4.20;99.90
16066;DHT22;8137;48.952;8.970;2023-02-15T12:07:35;4.30;99.90
16066;DHT22;8137;48.952;8.970;2023-02-15T12:10:13;4.40;99.90
16066;DHT22;8137;48.952;8.970;2023-02-15T12:12:43;4.40;99.90
16066;DHT22;8137;48.952;8.970;2023-02-15T12:15:11;4.50;99.90
16066;DHT22;8137;48.952;8.970;2023-02-15T12:17:52;4.70;99.90
16066;DHT22;8137;48.952;8.970;2023-02-15T12:23:06;5.10;99.90
16066;DHT22;8137;48.952;8.970;2023-02-15T12:25:36;5.20;99.90
16066;DHT22;8137;48.952;8.970;2023-02-15T12:28:04;5.30;99.90
16066;DHT22;8137;48.952;8.970;2023-02-15T12:30:32;5.40;99.90
16066;DHT22;8137;48.952;8.970;2023-02-15T12:35:29;5.50;99.90
16066;DHT22;8137;48.952;8.970;2023-02-15T12:38:00;5.60;99.90
16066;DHT22;8137;48.952;8.970;2023-02-15T12:40:28;5.70;99.90
16066;DHT22;8137;48.952;8.970;2023-02-15T12:42:54;5.70;99.90
16066;DHT22;8137;48.952;8.970;2023-02-15T12:45:30;5.70;99.90
16066;DHT22;8137;48.952;8.970;2023-02-15T12:48:17;6.10;99.90
16066;DHT22;8137;48.952;8.970;2023-02-15T12:50:49;6.40;99.90
16066;DHT22;8137;48.952;8.970;2023-02-15T12:53:22;6.20;99.90
16066;DHT22;8137;48.952;8.970;2023-02-15T12:55:52;6.30;99.90
16066;DHT22;8137;48.952;8.970;2023-02-15T12:58:21;6.40;99.90
16066;DHT22;8137;48.952;8.970;2023-02-15T13:01:02;6.50;99.90
16066;DHT22;8137;48.952;8.970;2023-02-15T13:03:29;6.60;99.90
16066;DHT22;8137;48.952;8.970;2023-02-15T13:05:56;6.70;99.90
16066;DHT22;8137;48.952;8.970;2023-02-15T13:13:33;6.80;99.90
16066;DHT22;8137;48.952;8.970;2023-02-15T13:16:07;6.90;99.90
16066;DHT22;8137;48.952;8.970;2023-02-15T13:18:42;6.90;99.90
16066;DHT22;8137;48.952;8.970;2023-02-15T13:21:18;6.90;99.90
16066;DHT22;8137;48.952;8.970;2023-02-15T13:23:52;6.60;99.90
16066;DHT22;8137;48.952;8.970;2023-02-15T13:26:23;6.50;99.90
16066;DHT22;8137;48.952;8.970;2023-02-15T13:28:58;6.40;99.90
16066;DHT22;8137;48.952;8.970;2023-02-15T13:31:31;6.20;99.90
16066;DHT22;8137;48.952;8.970;2023-02-15T13:34:03;6.10;99.90
16066;DHT22;8137;48.952;8.970;2023-02-15T13:39:42;6.20;99.90
16066;DHT22;8137;48.952;8.970;2023-02-15T13:42:26;6.30;99.90
16066;DHT22;8137;48.952;8.970;2023-02-15T13:56:35;6.30;99.90
16066;DHT22;8137;48.952;8.970;2023-02-15T14:15:34;6.90;99.90
16066;DHT22;8137;48.952;8.970;2023-02-15T14:18:22;7.00;99.90
16066;DHT22;8137;48.952;8.970;2023-02-15T14:21:04;6.90;99.90
16066;DHT22;8137;48.952;8.970;2023-02-15T14:31:49;7.00;99.90
16066;DHT22;8137;48.952;8.970;2023-02-15T14:34:28;7.10;99.90
16066;DHT22;8137;48.952;8.970;2023-02-15T14:36:56;7.20;99.90
16066;DHT22;8137;48.952;8.970;2023-02-15T14:39:35;7.20;99.90
16066;DHT22;8137;48.952;8.970;2023-02-15T14:42:45;7.20;99.90
16066;DHT22;8137;48.952;8.970;2023-02-15T14:45:35;7.30;99.90
16066;DHT22;8137;48.952;8.970;2023-02-15T14:50:38;7.20;99.90
16066;DHT22;8137;48.952;8.970;2023-02-15T14:59:00;7.20;99.90
16066;DHT22;8137;48.952;8.970;2023-02-15T15:01:35;7.20;99.90
16066;DHT22;8137;48.952;8.970;2023-02-15T15:04:13;7.20;99.90
16066;DHT22;8137;48.952;8.970;2023-02-15T15:06:42;7.20;99.90
16066;DHT22;8137;48.952;8.970;2023-02-15T15:09:21;7.20;99.90
16066;DHT22;8137;48.952;8.970;2023-02-15T15:11:52;7.20;99.90
16066;DHT22;8137;48.952;8.970;2023-02-15T15:14:37;7.20;99.90
16066;DHT22;8137;48.952;8.970;2023-02-15T15:17:05;7.20;99.90
16066;DHT22;8137;48.952;8.970;2023-02-15T15:22:22;7.20;99.90
16066;DHT22;8137;48.952;8.970;2023-02-15T15:27:42;7.10;99.90
16066;DHT22;8137;48.952;8.970;2023-02-15T15:35:45;7.20;99.90
16066;DHT22;8137;48.952;8.970;2023-02-15T15:41:18;7.20;99.90
16066;DHT22;8137;48.952;8.970;2023-02-15T15:49:14;7.10;99.90
16066;DHT22;8137;48.952;8.970;2023-02-15T15:51:42;7.10;99.90
16066;DHT22;8137;48.952;8.970;2023-02-15T15:54:16;7.10;99.90
16066;DHT22;8137;48.952;8.970;2023-02-15T15:56:46;7.10;99.90
16066;DHT22;8137;48.952;8.970;2023-02-15T15:59:19;7.00;99.90
16066;DHT22;8137;48.952;8.970;2023-02-15T16:01:46;6.90;99.90
16066;DHT22;8137;48.952;8.970;2023-02-15T16:04:24;6.90;99.90
16066;DHT22;8137;48.952;8.970;2023-02-15T16:06:51;6.80;99.90
16066;DHT22;8137;48.952;8.970;2023-02-15T16:09:23;6.80;99.90
16066;DHT22;8137;48.952;8.970;2023-02-15T16:11:53;6.70;99.90
16066;DHT22;8137;48.952;8.970;2023-02-15T16:14:40;6.50;99.90
16066;DHT22;8137;48.952;8.970;2023-02-15T16:17:17;6.40;99.90
16066;DHT22;8137;48.952;8.970;2023-02-15T16:19:44;6.30;99.90
16066;DHT22;8137;48.952;8.970;2023-02-15T16:22:16;6.10;99.90
16066;DHT22;8137;48.952;8.970;2023-02-15T16:25:02;6.00;99.90
16066;DHT22;8137;48.952;8.970;2023-02-15T16:27:41;5.90;99.90
16066;DHT22;8137;48.952;8.970;2023-02-15T16:30:31;5.80;99.90
16066;DHT22;8137;48.952;8.970;2023-02-15T16:33:12;5.60;99.90
16066;DHT22;8137;48.952;8.970;2023-02-15T16:35:40;5.50;99.90
16066;DHT22;8137;48.952;8.970;2023-02-15T16:38:09;5.30;99.90
16066;DHT22;8137;48.952;8.970;2023-02-15T16:40:55;5.20;99.90
16066;DHT22;8137;48.952;8.970;2023-02-15T16:43:26;5.00;99.90
16066;DHT22;8137;48.952;8.970;2023-02-15T16:46:23;4.90;99.90
16066;DHT22;8137;48.952;8.970;2023-02-15T16:48:52;4.70;99.90
16066;DHT22;8137;48.952;8.970;2023-02-15T16:51:25;4.60;99.90
16066;DHT22;8137;48.952;8.970;2023-02-15T16:53:52;4.50;99.90
16066;DHT22;8137;48.952;8.970;2023-02-15T16:56:27;4.30;99.90
16066;DHT22;8137;48.952;8.970;2023-02-15T16:58:55;4.20;99.90
16066;DHT22;8137;48.952;8.970;2023-02-15T17:01:25;4.10;99.90
16066;DHT22;8137;48.952;8.970;2023-02-15T17:04:11;4.00;99.90
16066;DHT22;8137;48.952;8.970;2023-02-15T17:06:37;3.90;99.90
16066;DHT22;8137;48.952;8.970;2023-02-15T17:09:05;3.80;99.90
16066;DHT22;8137;48.952;8.970;2023-02-15T17:11:42;3.70;99.90
16066;DHT22;8137;48.952;8.970;2023-02-15T17:16:52;3.60;99.90
16066;DHT22;8137;48.952;8.970;2023-02-15T17:19:24;3.50;99.90
16066;DHT22;8137;48.952;8.970;2023-02-15T17:26:59;3.30;99.90
16066;DHT22;8137;48.952;8.970;2023-02-15T17:29:38;3.20;99.90
16066;DHT22;8137;48.952;8.970;2023-02-15T17:32:09;3.10;99.90
16066;DHT22;8137;48.952;8.970;2023-02-15T17:40:22;2.80;99.90
16066;DHT22;8137;48.952;8.970;2023-02-15T17:42:47;2.70;99.90
16066;DHT22;8137;48.952;8.970;2023-02-15T17:45:14;2.60;99.90
16066;DHT22;8137;48.952;8.970;2023-02-15T17:47:39;2.50;99.90
16066;DHT22;8137;48.952;8.970;2023-02-15T17:50:07;2.50;99.90
16066;DHT22;8137;48.952;8.970;2023-02-15T17:52:33;2.50;99.90
16066;DHT22;8137;48.952;8.970;2023-02-15T17:55:07;2.40;99.90
16066;DHT22;8137;48.952;8.970;2023-02-15T17:57:51;2.40;99.90
16066;DHT22;8137;48.952;8.970;2023-02-15T18:00:17;2.30;99.90
16066;DHT22;8137;48.952;8.970;2023-02-15T18:03:01;2.30;99.90
16066;DHT22;8137;48.952;8.970;2023-02-15T18:05:45;2.20;99.90
16066;DHT22;8137;48.952;8.970;2023-02-15T18:08:29;2.10;99.90
16066;DHT22;8137;48.952;8.970;2023-02-15T18:11:13;2.00;99.90
16066;DHT22;8137;48.952;8.970;2023-02-15T18:13:57;1.90;99.90
16066;DHT22;8137;48.952;8.970;2023-02-15T18:16:28;1.80;99.90
16066;DHT22;8137;48.952;8.970;2023-02-15T18:18:55;1.80;99.90
16066;DHT22;8137;48.952;8.970;2023-02-15T18:21:22;1.70;99.90
16066;DHT22;8137;48.952;8.970;2023-02-15T18:23:48;1.60;99.90
16066;DHT22;8137;48.952;8.970;2023-02-15T18:26:22;1.50;99.90
16066;DHT22;8137;48.952;8.970;2023-02-15T18:28:48;1.50;99.90
16066;DHT22;8137;48.952;8.970;2023-02-15T18:31:14;1.40;99.90
16066;DHT22;8137;48.952;8.970;2023-02-15T18:33:55;1.40;99.90
16066;DHT22;8137;48.952;8.970;2023-02-15T18:36:26;1.40;99.90
16066;DHT22;8137;48.952;8.970;2023-02-15T18:38:53;1.40;99.90
16066;DHT22;8137;48.952;8.970;2023-02-15T18:41:20;1.40;99.90
16066;DHT22;8137;48.952;8.970;2023-02-15T18:43:46;1.30;99.90
16066;DHT22;8137;48.952;8.970;2023-02-15T18:46:13;1.30;99.90
16066;DHT22;8137;48.952;8.970;2023-02-15T18:48:39;1.30;99.90
16066;DHT22;8137;48.952;8.970;2023-02-15T18:51:17;1.30;99.90
16066;DHT22;8137;48.952;8.970;2023-02-15T18:53:44;1.20;99.90
16066;DHT22;8137;48.952;8.970;2023-02-15T18:56:21;1.20;99.90
16066;DHT22;8137;48.952;8.970;2023-02-15T18:58:47;1.20;99.90
16066;DHT22;8137;48.952;8.970;2023-02-15T19:01:16;1.10;99.90
16066;DHT22;8137;48.952;8.970;2023-02-15T19:03:46;1.00;99.90
16066;DHT22;8137;48.952;8.970;2023-02-15T19:06:14;1.00;99.90
16066;DHT22;8137;48.952;8.970;2023-02-15T19:08:40;1.00;99.90
16066;DHT22;8137;48.952;8.970;2023-02-15T19:11:14;0.90;99.90
16066;DHT22;8137;48.952;8.970;2023-02-15T19:13:40;0.90;99.90
16066;DHT22;8137;48.952;8.970;2023-02-15T19:16:07;0.90;99.90
16066;DHT22;8137;48.952;8.970;2023-02-15T19:18:33;0.80;99.90
16066;DHT22;8137;48.952;8.970;2023-02-15T19:20:58;0.70;99.90
16066;DHT22;8137;48.952;8.970;2023-02-15T19:23:24;0.70;99.90
16066;DHT22;8137;48.952;8.970;2023-02-15T19:25:52;0.60;99.90
16066;DHT22;8137;48.952;8.970;2023-02-15T19:28:22;0.60;99.90